createdAt,value
2023-03-08T00:01:36.157Z,22.20
2023-03-08T00:04:03.964Z,22.20
2023-03-08T00:06:31.616Z,22.20
2023-03-08T00:09:00.649Z,22.30
2023-03-08T00:11:28.659Z,22.30
2023-03-08T00:13:57.113Z,22.30
2023-03-08T00:16:24.716Z,22.30
2023-03-08T00:18:52.277Z,22.40
2023-03-08T00:21:20.008Z,22.40
2023-03-08T00:23:47.578Z,22.50
2023-03-08T00:26:15.444Z,22.50
2023-03-08T00:28:43.159Z,22.60
2023-03-08T00:31:12.622Z,22.60
2023-03-08T00:33:47.033Z,22.70
2023-03-08T00:36:16.307Z,22.70
2023-03-08T00:38:44.535Z,22.80
2023-03-08T00:41:12.363Z,22.90
2023-03-08T00:43:42.520Z,23.00
2023-03-08T00:46:10.084Z,23.10
2023-03-08T00:48:37.941Z,23.10
2023-03-08T00:51:06.061Z,23.20
2023-03-08T00:53:33.861Z,23.30
2023-03-08T00:56:02.379Z,23.40
2023-03-08T00:58:30.367Z,23.50
2023-03-08T01:01:01.036Z,23.60
2023-03-08T01:03:32.520Z,23.60
2023-03-08T01:06:00.163Z,23.70
2023-03-08T01:08:27.800Z,23.70
2023-03-08T01:10:59.757Z,23.80
2023-03-08T01:13:28.869Z,23.90
2023-03-08T01:15:56.725Z,23.90
2023-03-08T01:18:25.281Z,24.00
2023-03-08T01:21:03.233Z,24.00
2023-03-08T01:23:31.485Z,24.10
2023-03-08T01:26:00.148Z,24.10
2023-03-08T01:28:28.403Z,24.20
2023-03-08T01:31:01.289Z,24.20
2023-03-08T01:33:28.951Z,24.30
2023-03-08T01:35:57.919Z,24.30
2023-03-08T01:38:42.122Z,24.40
2023-03-08T01:41:20.066Z,24.50
2023-03-08T01:44:01.230Z,24.60
2023-03-08T01:46:29.175Z,24.60
2023-03-08T01:49:01.399Z,24.60
2023-03-08T01:51:34.902Z,24.80
2023-03-08T01:54:23.282Z,24.80
2023-03-08T01:56:52.247Z,24.80
2023-03-08T01:59:21.202Z,24.90
2023-03-08T02:01:50.282Z,25.00
2023-03-08T02:04:18.114Z,25.00
2023-03-08T02:07:02.655Z,25.10
2023-03-08T02:09:30.686Z,25.20
2023-03-08T02:12:00.856Z,25.20
2023-03-08T02:14:29.190Z,25.30
2023-03-08T02:16:57.178Z,25.30
2023-03-08T02:19:29.080Z,25.40
2023-03-08T02:21:56.598Z,25.40
2023-03-08T02:24:25.508Z,25.50
2023-03-08T02:26:58.388Z,25.60
2023-03-08T02:29:26.111Z,25.70
2023-03-08T02:31:54.152Z,25.80
2023-03-08T02:34:22.018Z,25.80
2023-03-08T02:36:51.711Z,25.90
2023-03-08T02:39:19.572Z,25.90
2023-03-08T02:41:47.726Z,26.00
2023-03-08T02:44:15.282Z,26.10
2023-03-08T02:46:43.480Z,26.10
2023-03-08T02:49:11.224Z,26.20
2023-03-08T02:51:39.266Z,26.20
2023-03-08T02:54:07.265Z,26.30
2023-03-08T02:59:09.812Z,26.40
2023-03-08T03:01:38.113Z,26.40
2023-03-08T03:04:05.668Z,26.50
2023-03-08T03:06:35.206Z,26.50
2023-03-08T03:09:07.530Z,26.50
2023-03-08T03:11:35.269Z,26.60
2023-03-08T03:14:03.731Z,26.70
2023-03-08T03:16:33.524Z,26.70
2023-03-08T03:19:04.301Z,26.80
2023-03-08T03:21:33.117Z,26.80
2023-03-08T03:24:00.741Z,26.90
2023-03-08T03:26:28.698Z,26.90
2023-03-08T03:28:57.605Z,26.90
2023-03-08T03:31:25.818Z,27.00
2023-03-08T03:33:54.652Z,27.00
2023-03-08T03:36:23.491Z,27.10
2023-03-08T03:38:51.683Z,27.20
2023-03-08T03:41:21.455Z,27.20
2023-03-08T03:43:58.185Z,27.30
2023-03-08T03:46:26.726Z,27.30
2023-03-08T03:48:54.514Z,27.40
2023-03-08T03:51:23.266Z,27.50
2023-03-08T03:53:54.163Z,27.50
2023-03-08T03:56:26.332Z,27.60
2023-03-08T03:58:54.941Z,27.70
2023-03-08T04:01:37.000Z,27.70
2023-03-08T04:04:04.686Z,27.70
2023-03-08T04:06:33.937Z,27.80
2023-03-08T04:09:02.740Z,27.80
2023-03-08T04:11:34.982Z,27.90
2023-03-08T04:14:03.872Z,27.90
2023-03-08T04:16:32.613Z,27.90
2023-03-08T04:19:02.004Z,28.00
2023-03-08T04:21:30.351Z,28.00
2023-03-08T04:24:00.584Z,28.00
2023-03-08T04:26:28.629Z,28.10
2023-03-08T04:28:56.525Z,28.20
2023-03-08T04:31:29.201Z,28.30
2023-03-08T04:33:58.549Z,28.30
2023-03-08T04:36:26.239Z,28.40
2023-03-08T04:38:53.824Z,28.40
2023-03-08T04:41:21.571Z,28.50
2023-03-08T04:43:56.178Z,28.50
2023-03-08T04:46:26.495Z,28.50
2023-03-08T04:48:56.043Z,28.60
2023-03-08T04:51:25.989Z,28.60
2023-03-08T04:53:53.870Z,28.70
2023-03-08T04:56:21.705Z,28.80
2023-03-08T04:58:52.204Z,28.80
2023-03-08T05:01:21.197Z,28.80
2023-03-08T05:03:57.461Z,28.90
2023-03-08T05:06:29.369Z,28.90
2023-03-08T05:08:56.981Z,29.00
2023-03-08T05:11:26.283Z,29.10
2023-03-08T05:13:54.925Z,29.10
2023-03-08T05:16:22.660Z,29.20
2023-03-08T05:18:51.540Z,29.30
2023-03-08T05:21:21.004Z,29.30
2023-03-08T05:23:48.613Z,29.40
2023-03-08T05:26:17.412Z,29.40
2023-03-08T05:28:45.070Z,29.50
2023-03-08T05:31:18.263Z,29.50
2023-03-08T05:33:47.268Z,29.60
2023-03-08T05:36:15.179Z,29.60
2023-03-08T05:38:44.060Z,29.70
2023-03-08T05:41:16.558Z,29.70
2023-03-08T05:43:44.590Z,29.80
2023-03-08T05:46:17.568Z,29.80
2023-03-08T05:48:47.200Z,29.90
2023-03-08T05:51:16.601Z,29.90
2023-03-08T05:53:44.418Z,30.00
2023-03-08T05:56:16.907Z,30.00
2023-03-08T05:58:47.758Z,30.10
2023-03-08T06:01:19.545Z,30.20
2023-03-08T06:03:48.151Z,30.10
2023-03-08T06:06:16.994Z,30.20
2023-03-08T06:08:44.953Z,30.20
2023-03-08T06:11:15.058Z,30.30
2023-03-08T06:13:48.340Z,30.30
2023-03-08T06:16:16.411Z,30.40
2023-03-08T06:18:44.962Z,30.40
2023-03-08T06:21:18.033Z,30.50
2023-03-08T06:23:46.493Z,30.60
2023-03-08T06:26:15.594Z,30.60
2023-03-08T06:28:43.432Z,30.70
2023-03-08T06:31:15.605Z,30.70
2023-03-08T06:33:44.783Z,30.70
2023-03-08T06:36:14.032Z,30.80
2023-03-08T06:38:43.631Z,30.80
2023-03-08T06:41:12.838Z,30.70
2023-03-08T06:43:41.443Z,30.80
2023-03-08T06:46:11.455Z,30.80
2023-03-08T06:48:39.243Z,30.90
2023-03-08T06:51:07.564Z,31.00
2023-03-08T06:53:39.395Z,31.10
2023-03-08T06:56:07.897Z,31.20
2023-03-08T06:58:38.238Z,31.20
2023-03-08T07:01:06.475Z,31.30
2023-03-08T07:03:34.221Z,31.40
2023-03-08T07:06:11.389Z,31.40
2023-03-08T07:08:40.328Z,31.40
2023-03-08T07:11:10.818Z,31.40
2023-03-08T07:13:39.870Z,31.40
2023-03-08T07:16:08.953Z,31.40
2023-03-08T07:18:37.381Z,31.40
2023-03-08T07:21:04.987Z,31.50
2023-03-08T07:23:32.730Z,31.50
2023-03-08T07:26:01.171Z,31.50
2023-03-08T07:28:29.017Z,31.50
2023-03-08T07:30:57.665Z,31.50
2023-03-08T07:33:26.853Z,31.50
2023-03-08T07:35:54.707Z,31.50
2023-03-08T07:38:23.139Z,31.40
2023-03-08T07:40:55.437Z,31.50
2023-03-08T07:43:26.886Z,31.50
2023-03-08T07:45:54.504Z,31.50
2023-03-08T07:48:22.590Z,31.50
2023-03-08T07:50:51.315Z,31.60
2023-03-08T07:53:19.767Z,31.60
2023-03-08T07:55:47.648Z,31.60
2023-03-08T07:58:15.580Z,31.70
2023-03-08T08:00:43.915Z,31.80
2023-03-08T08:03:14.363Z,31.80
2023-03-08T08:05:45.409Z,31.80
2023-03-08T08:08:14.871Z,31.80
2023-03-08T08:10:43.690Z,31.80
2023-03-08T08:13:12.679Z,31.80
2023-03-08T08:15:40.365Z,31.80
2023-03-08T08:18:08.011Z,31.80
2023-03-08T08:20:38.050Z,31.80
2023-03-08T08:23:06.852Z,31.70
2023-03-08T08:25:34.752Z,31.80
2023-03-08T08:28:02.510Z,31.70
2023-03-08T08:30:30.301Z,31.70
2023-03-08T08:32:58.330Z,31.70
2023-03-08T08:35:37.420Z,31.70
2023-03-08T08:38:08.605Z,31.70
2023-03-08T08:40:37.461Z,31.80
2023-03-08T08:43:05.280Z,31.70
2023-03-08T08:45:33.823Z,31.80
2023-03-08T08:48:01.975Z,31.80
2023-03-08T08:50:29.525Z,31.90
2023-03-08T08:52:57.266Z,31.90
2023-03-08T08:55:25.236Z,32.00
2023-03-08T08:57:52.806Z,31.90
2023-03-08T09:00:20.479Z,32.00
2023-03-08T09:02:48.224Z,32.00
2023-03-08T09:05:17.010Z,32.00
2023-03-08T09:07:44.602Z,31.90
2023-03-08T09:10:13.245Z,31.90
2023-03-08T09:12:42.459Z,31.80
2023-03-08T09:15:11.818Z,31.80
2023-03-08T09:17:39.813Z,31.80
2023-03-08T09:20:18.425Z,31.80
2023-03-08T09:22:46.282Z,31.80
2023-03-08T09:25:15.772Z,31.80
2023-03-08T09:27:43.726Z,31.70
2023-03-08T09:30:13.469Z,31.70
2023-03-08T09:32:41.690Z,31.70
2023-03-08T09:35:10.323Z,31.70
2023-03-08T09:37:38.395Z,31.60
2023-03-08T09:40:10.664Z,31.60
2023-03-08T09:42:39.047Z,31.50
2023-03-08T09:45:39.049Z,31.50
2023-03-08T09:48:18.425Z,31.50
2023-03-08T09:50:46.836Z,31.40
2023-03-08T09:53:21.490Z,31.50
2023-03-08T09:55:51.719Z,31.40
2023-03-08T09:58:31.022Z,31.40
2023-03-08T10:01:02.979Z,31.40
2023-03-08T10:03:36.087Z,31.30
2023-03-08T10:06:07.069Z,31.30
2023-03-08T10:08:46.705Z,31.20
2023-03-08T10:11:37.586Z,31.20
2023-03-08T10:14:18.621Z,31.20
2023-03-08T10:16:52.956Z,31.10
2023-03-08T10:19:26.990Z,31.10
2023-03-08T10:21:55.721Z,31.10
2023-03-08T10:24:37.586Z,31.00
2023-03-08T10:27:17.018Z,31.00
2023-03-08T10:29:51.863Z,30.90
2023-03-08T10:32:20.173Z,30.90
2023-03-08T10:34:48.768Z,30.90
2023-03-08T10:37:16.802Z,30.80
2023-03-08T10:39:55.316Z,30.80
2023-03-08T10:42:24.344Z,30.80
2023-03-08T10:44:56.457Z,30.70
2023-03-08T10:47:29.597Z,30.70
2023-03-08T10:50:26.587Z,30.60
2023-03-08T10:52:54.216Z,30.60
2023-03-08T10:55:23.137Z,30.50
2023-03-08T10:57:53.312Z,30.50
2023-03-08T11:00:20.947Z,30.50
2023-03-08T11:02:48.859Z,30.40
2023-03-08T11:05:21.109Z,30.40
2023-03-08T11:07:53.088Z,30.30
2023-03-08T11:10:24.480Z,30.30
2023-03-08T11:13:12.126Z,30.20
2023-03-08T11:15:41.969Z,30.20
2023-03-08T11:18:10.897Z,30.10
2023-03-08T11:20:50.515Z,30.10
2023-03-08T11:23:24.170Z,30.00
2023-03-08T11:26:04.612Z,30.00
2023-03-08T11:28:53.129Z,29.90
2023-03-08T11:31:24.210Z,29.90
2023-03-08T11:33:55.285Z,29.80
2023-03-08T11:36:26.013Z,29.70
2023-03-08T11:39:03.299Z,29.70
2023-03-08T11:41:50.894Z,29.60
2023-03-08T11:44:39.645Z,29.60
2023-03-08T11:47:10.212Z,29.50
2023-03-08T11:49:38.539Z,29.40
2023-03-08T11:52:06.918Z,29.40
2023-03-08T11:54:43.682Z,29.30
2023-03-08T11:57:12.692Z,29.20
2023-03-08T11:59:43.417Z,29.20
2023-03-08T12:02:31.430Z,29.10
2023-03-08T12:05:02.332Z,29.10
2023-03-08T12:07:45.627Z,29.10
2023-03-08T12:10:21.633Z,29.10
2023-03-08T12:12:49.175Z,29.10
2023-03-08T12:15:19.642Z,29.00
2023-03-08T12:17:51.477Z,29.00
2023-03-08T12:20:20.426Z,29.00
2023-03-08T12:22:51.723Z,29.00
2023-03-08T12:25:33.620Z,29.00
2023-03-08T12:28:13.300Z,28.90
2023-03-08T12:30:52.704Z,28.90
2023-03-08T12:33:20.613Z,28.90
2023-03-08T12:35:56.007Z,28.90
2023-03-08T12:38:23.688Z,28.90
2023-03-08T12:40:52.678Z,28.80
2023-03-08T12:43:20.206Z,28.80
2023-03-08T12:45:48.600Z,28.80
2023-03-08T12:48:22.805Z,28.80
2023-03-08T12:51:02.757Z,28.80
2023-03-08T12:54:06.427Z,28.70
2023-03-08T12:56:37.759Z,28.70
2023-03-08T12:59:11.820Z,28.70
2023-03-08T13:01:40.932Z,28.70
2023-03-08T13:04:39.105Z,28.60
2023-03-08T13:07:29.874Z,28.60
2023-03-08T13:10:05.289Z,28.60
2023-03-08T13:12:37.332Z,28.50
2023-03-08T13:15:25.102Z,28.50
2023-03-08T13:17:54.766Z,28.50
2023-03-08T13:20:27.162Z,28.40
2023-03-08T13:23:00.667Z,28.40
2023-03-08T13:25:34.835Z,28.40
2023-03-08T13:28:06.816Z,28.40
2023-03-08T13:30:38.772Z,28.40
2023-03-08T13:33:13.110Z,28.30
2023-03-08T13:35:41.635Z,28.30
2023-03-08T13:38:19.954Z,28.20
2023-03-08T13:40:54.428Z,28.20
2023-03-08T13:43:26.176Z,28.20
2023-03-08T13:45:55.122Z,28.10
2023-03-08T13:48:23.381Z,28.10
2023-03-08T13:50:52.556Z,28.00
2023-03-08T13:53:24.693Z,28.00
2023-03-08T13:55:54.301Z,28.00
2023-03-08T13:58:28.730Z,27.90
2023-03-08T14:01:19.596Z,27.90
2023-03-08T14:03:47.540Z,27.90
2023-03-08T14:06:26.108Z,27.80
2023-03-08T14:08:54.759Z,27.80
2023-03-08T14:11:23.603Z,27.70
2023-03-08T14:13:52.950Z,27.80
2023-03-08T14:16:26.165Z,27.70
2023-03-08T14:18:53.857Z,27.70
2023-03-08T14:21:24.564Z,27.60
2023-03-08T14:23:55.273Z,27.60
2023-03-08T14:26:39.559Z,27.60
2023-03-08T14:29:22.044Z,27.60
2023-03-08T14:32:07.422Z,27.60
2023-03-08T14:34:36.416Z,27.60
2023-03-08T14:37:06.044Z,27.50
2023-03-08T14:39:34.944Z,27.50
2023-03-08T14:42:21.134Z,27.50
2023-03-08T14:45:00.167Z,27.50
2023-03-08T14:47:29.172Z,27.40
2023-03-08T14:50:04.659Z,27.40
2023-03-08T14:52:34.938Z,27.40
2023-03-08T14:55:03.719Z,27.40
2023-03-08T14:57:31.306Z,27.40
2023-03-08T15:00:07.816Z,27.40
2023-03-08T15:02:36.095Z,27.40
2023-03-08T15:05:03.957Z,27.40
2023-03-08T15:07:33.348Z,27.40
2023-03-08T15:10:02.313Z,27.40
2023-03-08T15:12:29.849Z,27.40
2023-03-08T15:14:57.331Z,27.30
2023-03-08T15:17:24.878Z,27.30
2023-03-08T15:19:52.346Z,27.30
2023-03-08T15:22:20.715Z,27.30
2023-03-08T15:24:49.164Z,27.30
2023-03-08T15:27:16.719Z,27.20
2023-03-08T15:29:44.219Z,27.20
2023-03-08T15:32:11.863Z,27.10
2023-03-08T15:34:40.956Z,27.10
2023-03-08T15:37:11.805Z,27.10
2023-03-08T15:39:39.315Z,27.00
2023-03-08T15:42:06.824Z,27.00
2023-03-08T15:44:34.343Z,27.00
2023-03-08T15:47:02.129Z,26.90
2023-03-08T15:49:29.691Z,26.90
2023-03-08T15:51:57.410Z,26.90
2023-03-08T15:54:24.955Z,26.80
2023-03-08T15:56:54.664Z,26.80
2023-03-08T15:59:22.273Z,26.80
2023-03-08T16:01:49.787Z,26.80
2023-03-08T16:04:18.160Z,26.70
2023-03-08T16:06:45.905Z,26.70
2023-03-08T16:09:13.514Z,26.70
2023-03-08T16:11:41.310Z,26.70
2023-03-08T16:14:08.856Z,26.60
2023-03-08T16:16:45.180Z,26.60
2023-03-08T16:19:13.445Z,26.60
2023-03-08T16:21:40.903Z,26.60
2023-03-08T16:24:08.408Z,26.60
2023-03-08T16:26:35.907Z,26.60
2023-03-08T16:29:03.456Z,26.50
2023-03-08T16:31:33.459Z,26.50
2023-03-08T16:34:04.733Z,26.50
2023-03-08T16:36:33.051Z,26.50
2023-03-08T16:39:00.584Z,26.50
2023-03-08T16:41:30.250Z,26.50
2023-03-08T16:43:58.257Z,26.50
2023-03-08T16:46:25.800Z,26.50
2023-03-08T16:48:57.090Z,26.50
2023-03-08T16:51:25.902Z,26.60
2023-03-08T16:53:53.734Z,26.50
2023-03-08T16:56:22.441Z,26.50
2023-03-08T16:58:50.013Z,26.60
2023-03-08T17:01:18.440Z,26.60
2023-03-08T17:03:46.245Z,26.60
2023-03-08T17:06:15.408Z,26.60
2023-03-08T17:08:43.113Z,26.60
2023-03-08T17:11:17.577Z,26.50
2023-03-08T17:13:47.913Z,26.50
2023-03-08T17:16:15.553Z,26.50
2023-03-08T17:18:43.040Z,26.50
2023-03-08T17:21:10.606Z,26.50
2023-03-08T17:23:38.132Z,26.50
2023-03-08T17:26:06.556Z,26.50
2023-03-08T17:28:34.093Z,26.40
2023-03-08T17:31:02.144Z,26.40
2023-03-08T17:33:29.946Z,26.40
2023-03-08T17:36:00.341Z,26.40
2023-03-08T17:38:28.538Z,26.30
2023-03-08T17:40:56.012Z,26.30
2023-03-08T17:43:23.606Z,26.20
2023-03-08T17:46:00.275Z,26.20
2023-03-08T17:48:27.874Z,26.10
2023-03-08T17:50:55.569Z,26.10
2023-03-08T17:53:23.045Z,26.10
2023-03-08T17:55:50.656Z,26.10
2023-03-08T17:58:20.053Z,26.10
2023-03-08T18:00:47.612Z,26.10
2023-03-08T18:03:15.064Z,26.10
2023-03-08T18:05:47.903Z,26.00
2023-03-08T18:08:15.381Z,26.00
2023-03-08T18:10:42.889Z,26.00
2023-03-08T18:13:10.571Z,26.00
2023-03-08T18:15:39.032Z,26.00
2023-03-08T18:18:08.604Z,26.00
2023-03-08T18:20:36.143Z,26.00
2023-03-08T18:23:05.264Z,26.00
2023-03-08T18:25:32.721Z,26.00
2023-03-08T18:28:00.531Z,25.90
2023-03-08T18:30:28.432Z,25.90
2023-03-08T18:32:57.296Z,25.90
2023-03-08T18:35:24.865Z,25.90
2023-03-08T18:37:52.362Z,25.90
2023-03-08T18:40:20.063Z,25.80
2023-03-08T18:42:47.626Z,25.80
2023-03-08T18:45:20.206Z,25.80
2023-03-08T18:47:51.076Z,25.70
2023-03-08T18:50:19.058Z,25.60
2023-03-08T18:52:46.844Z,25.60
2023-03-08T18:55:14.436Z,25.50
2023-03-08T18:57:41.959Z,25.50
2023-03-08T19:00:12.857Z,25.40
2023-03-08T19:02:40.412Z,25.40
2023-03-08T19:05:08.168Z,25.40
2023-03-08T19:07:36.107Z,25.40
2023-03-08T19:10:03.857Z,25.30
2023-03-08T19:12:34.687Z,25.30
2023-03-08T19:15:02.272Z,25.20
2023-03-08T19:17:29.794Z,25.20
2023-03-08T19:19:57.335Z,25.10
2023-03-08T19:22:24.801Z,25.00
2023-03-08T19:24:52.259Z,25.00
2023-03-08T19:27:20.120Z,25.00
2023-03-08T19:29:47.630Z,24.90
2023-03-08T19:32:16.157Z,24.80
2023-03-08T19:34:45.020Z,24.80
2023-03-08T19:37:13.681Z,24.80
2023-03-08T19:39:41.766Z,24.80
2023-03-08T19:42:11.451Z,24.70
2023-03-08T19:44:39.227Z,24.70
2023-03-08T19:47:07.060Z,24.70
2023-03-08T19:49:36.608Z,24.70
2023-03-08T19:52:05.958Z,24.70
2023-03-08T19:54:34.162Z,24.80
2023-03-08T19:57:02.977Z,24.80
2023-03-08T19:59:31.112Z,24.80
2023-03-08T20:01:58.726Z,24.90
2023-03-08T20:04:26.253Z,24.90
2023-03-08T20:06:53.778Z,24.90
2023-03-08T20:09:22.793Z,25.00
2023-03-08T20:11:53.346Z,25.00
2023-03-08T20:14:21.515Z,25.00
2023-03-08T20:16:49.280Z,25.00
2023-03-08T20:19:17.894Z,25.00
2023-03-08T20:21:45.457Z,25.10
2023-03-08T20:24:13.707Z,25.10
2023-03-08T20:26:42.227Z,25.10
2023-03-08T20:29:09.800Z,25.10
2023-03-08T20:31:37.344Z,25.10
2023-03-08T20:34:04.911Z,25.10
2023-03-08T20:36:33.374Z,25.00
2023-03-08T20:39:01.082Z,25.00
2023-03-08T20:41:28.690Z,25.00
2023-03-08T20:43:56.677Z,25.00
2023-03-08T20:46:25.773Z,25.00
2023-03-08T20:48:53.486Z,25.00
2023-03-08T20:51:22.367Z,25.00
2023-03-08T20:53:51.118Z,24.90
2023-03-08T20:56:19.905Z,24.90
2023-03-08T20:58:47.840Z,24.90
2023-03-08T21:01:17.385Z,24.80
2023-03-08T21:03:45.375Z,24.80
2023-03-08T21:06:12.966Z,24.80
2023-03-08T21:08:41.680Z,24.80
2023-03-08T21:11:09.229Z,24.70
2023-03-08T21:13:36.800Z,24.70
2023-03-08T21:16:05.681Z,24.60
2023-03-08T21:18:33.250Z,24.70
2023-03-08T21:21:00.874Z,24.60
2023-03-08T21:23:28.844Z,24.60
2023-03-08T21:26:00.571Z,24.50
2023-03-08T21:28:28.488Z,24.50
2023-03-08T21:30:56.001Z,24.50
2023-03-08T21:33:23.515Z,24.40
2023-03-08T21:35:51.061Z,24.40
2023-03-08T21:38:18.637Z,24.30
2023-03-08T21:40:46.149Z,24.30
2023-03-08T21:43:13.742Z,24.30
2023-03-08T21:45:41.646Z,24.20
2023-03-08T21:48:10.677Z,24.20
2023-03-08T21:50:39.959Z,24.10
2023-03-08T21:53:08.291Z,24.10
2023-03-08T21:55:39.176Z,24.10
2023-03-08T21:58:07.053Z,24.10
2023-03-08T22:00:34.852Z,24.00
2023-03-08T22:03:02.431Z,24.00
2023-03-08T22:05:31.203Z,24.00
2023-03-08T22:07:58.738Z,24.00
2023-03-08T22:10:26.249Z,24.00
2023-03-08T22:12:53.929Z,23.90
2023-03-08T22:15:21.488Z,23.90
2023-03-08T22:17:48.985Z,23.90
2023-03-08T22:20:16.606Z,23.80
2023-03-08T22:22:44.474Z,23.80
2023-03-08T22:25:13.831Z,23.70
2023-03-08T22:27:41.406Z,23.70
2023-03-08T22:30:11.693Z,23.70
2023-03-08T22:32:40.858Z,23.70
2023-03-08T22:35:09.423Z,23.70
2023-03-08T22:37:37.079Z,23.70
2023-03-08T22:40:07.494Z,23.70
2023-03-08T22:42:35.180Z,23.60
2023-03-08T22:45:04.436Z,23.60
2023-03-08T22:47:31.946Z,23.60
2023-03-08T22:49:59.538Z,23.60
2023-03-08T22:52:27.031Z,23.60
2023-03-08T22:54:54.549Z,23.50
2023-03-08T22:57:22.363Z,23.50
2023-03-08T22:59:49.875Z,23.50
2023-03-08T23:02:17.414Z,23.40
2023-03-08T23:04:44.986Z,23.40
2023-03-08T23:07:12.501Z,23.40
2023-03-08T23:09:40.081Z,23.30
2023-03-08T23:12:08.555Z,23.30
2023-03-08T23:14:36.170Z,23.30
2023-03-08T23:17:03.668Z,23.30
2023-03-08T23:19:31.418Z,23.30
2023-03-08T23:21:59.064Z,23.30
2023-03-08T23:24:26.596Z,23.30
2023-03-08T23:27:00.386Z,23.30
2023-03-08T23:29:27.926Z,23.20
2023-03-08T23:31:55.765Z,23.20
2023-03-08T23:34:23.415Z,23.20
2023-03-08T23:36:51.708Z,23.20
2023-03-08T23:39:19.252Z,23.20
2023-03-08T23:41:46.838Z,23.20
2023-03-08T23:44:15.299Z,23.20
2023-03-08T23:46:46.394Z,23.10
2023-03-08T23:49:14.003Z,23.20
2023-03-08T23:51:41.572Z,23.20
2023-03-08T23:54:10.256Z,23.10
2023-03-08T23:56:39.558Z,23.10
2023-03-08T23:59:22.746Z,23.10
